Time;durP1;ratioP1;P1;durP2;ratioP2;P2;SDS_P1;SDS_P2;PMS_P1;PMS_P2;Temp;Humidity;BMP_temperature;BMP_pressure;BME280_temperature;BME280_humidity;BME280_pressure;Samples;Min_cycle;Max_cycle;Signal;HPM_P1;HPM_P2
2023/05/12 00:00:03;;;;;;;8.73;4.20;;;;;;;-143.48;100.00;118439.88;5053167;28;20033;-65
2023/05/12 00:02:28;;;;;;;7.97;4.00;;;;;;;-143.48;100.00;118439.88;5053194;28;20025;-65
2023/05/12 00:04:54;;;;;;;6.75;4.22;;;;;;;-143.48;100.00;118439.88;5053051;28;20391;-66
2023/05/12 00:07:19;;;;;;;7.82;4.05;;;;;;;-143.48;100.00;118439.88;5053113;28;20029;-66
2023/05/12 00:09:45;;;;;;;8.32;3.92;;;;;;;-143.48;100.00;118439.88;5035279;28;20112;-66
2023/05/12 00:12:10;;;;;;;6.10;3.97;;;;;;;-143.48;100.00;118439.88;5052980;28;20029;-67
2023/05/12 00:14:36;;;;;;;7.55;4.15;;;;;;;-143.48;100.00;118439.88;5052909;28;20487;-67
2023/05/12 00:17:03;;;;;;;6.78;4.07;;;;;;;-143.48;100.00;118439.88;5035205;28;20493;-66
2023/05/12 00:19:29;;;;;;;7.32;4.43;;;;;;;-143.48;100.00;118439.88;5057520;28;20106;-66
2023/05/12 00:21:54;;;;;;;6.53;4.25;;;;;;;-143.48;100.00;118439.88;5059614;28;20053;-66
2023/05/12 00:24:19;;;;;;;8.40;4.88;;;;;;;-143.48;100.00;118439.88;5059613;28;20032;-66
2023/05/12 00:26:44;;;;;;;7.60;4.50;;;;;;;-143.48;100.00;118439.88;5059541;28;20592;-66
2023/05/12 00:29:10;;;;;;;7.68;4.70;;;;;;;-143.48;100.00;118439.88;5059595;28;20396;-66
2023/05/12 00:31:35;;;;;;;8.45;4.72;;;;;;;-143.48;100.00;118439.88;5041444;28;20028;-66
2023/05/12 00:34:00;;;;;;;7.93;5.00;;;;;;;-143.48;100.00;118439.88;5059469;28;20111;-65
2023/05/12 00:36:26;;;;;;;6.00;4.20;;;;;;;-143.48;100.00;118439.88;5059690;28;20025;-66
2023/05/12 00:38:53;;;;;;;6.88;4.60;;;;;;;-143.48;100.00;118439.88;5059457;28;20029;-65
2023/05/12 00:41:18;;;;;;;6.93;4.50;;;;;;;-143.48;100.00;118439.88;5041554;28;20023;-66
2023/05/12 00:43:44;;;;;;;7.32;4.60;;;;;;;-143.48;100.00;118439.88;5059468;28;20107;-65
2023/05/12 00:46:09;;;;;;;6.43;4.45;;;;;;;-143.48;100.00;118439.88;5041510;28;20519;-65
2023/05/12 00:48:35;;;;;;;6.88;4.20;;;;;;;-143.48;100.00;118439.88;5059285;28;20049;-65
2023/05/12 00:51:02;;;;;;;7.03;4.07;;;;;;;-143.48;100.00;118439.88;5059442;28;20036;-66
2023/05/12 00:53:30;;;;;;;7.05;4.30;;;;;;;-143.48;100.00;118439.88;5059308;28;20090;-66
2023/05/12 00:55:56;;;;;;;8.60;4.03;;;;;;;-143.48;100.00;118439.88;5059217;28;20052;-65
2023/05/12 00:58:22;;;;;;;6.40;4.10;;;;;;;-143.48;100.00;118439.88;5059335;28;20029;-66
2023/05/12 01:00:47;;;;;;;6.38;4.35;;;;;;;-143.48;100.00;118439.88;5059340;28;20025;-65
2023/05/12 01:03:12;;;;;;;6.38;4.13;;;;;;;-143.48;100.00;118439.88;5059198;28;20079;-66
2023/05/12 01:05:48;;;;;;;6.20;4.20;;;;;;;-143.48;100.00;118439.88;5059244;28;20067;-64
2023/05/12 01:08:15;;;;;;;5.85;4.15;;;;;;;-143.48;100.00;118439.88;5059247;28;20025;-65
2023/05/12 01:10:43;;;;;;;5.95;4.00;;;;;;;-143.48;100.00;118439.88;5059182;28;20394;-66
2023/05/12 01:13:09;;;;;;;6.75;4.45;;;;;;;-143.48;100.00;118439.88;5059253;28;20020;-66
2023/05/12 01:15:36;;;;;;;6.97;4.25;;;;;;;-143.48;100.00;118439.88;5059121;28;20017;-66
2023/05/12 01:18:04;;;;;;;6.38;4.32;;;;;;;-143.48;100.00;118439.88;5059270;28;20043;-66
2023/05/12 01:20:31;;;;;;;8.32;4.57;;;;;;;-143.48;100.00;118439.88;5059027;28;20056;-66
2023/05/12 01:22:57;;;;;;;8.30;4.68;;;;;;;-143.48;100.00;118439.88;5059089;28;20021;-65
2023/05/12 01:25:24;;;;;;;7.72;4.80;;;;;;;-143.48;100.00;118439.88;5059045;28;20444;-65
2023/05/12 01:27:49;;;;;;;8.85;4.68;;;;;;;-143.48;100.00;118439.88;5059220;28;20021;-67
2023/05/12 01:30:17;;;;;;;9.05;4.93;;;;;;;-143.48;100.00;118439.88;5057454;28;20035;-65
2023/05/12 01:32:43;;;;;;;7.03;4.85;;;;;;;-143.48;100.00;118439.88;5056025;28;20107;-65
2023/05/12 01:35:08;;;;;;;7.43;4.88;;;;;;;-143.48;100.00;118439.88;5055874;28;20052;-66
2023/05/12 01:37:34;;;;;;;7.50;4.63;;;;;;;-143.48;100.00;118439.88;5037791;28;20036;-66
2023/05/12 01:39:59;;;;;;;7.28;4.40;;;;;;;-143.48;100.00;118439.88;5037862;28;20033;-65
2023/05/12 01:42:25;;;;;;;6.25;4.40;;;;;;;-143.48;100.00;118439.88;5055622;28;20021;-66
2023/05/12 01:44:50;;;;;;;6.68;4.00;;;;;;;-143.48;100.00;118439.88;5055651;28;20021;-66
2023/05/12 01:47:15;;;;;;;6.78;3.85;;;;;;;-143.48;100.00;118439.88;5055528;28;20052;-66
2023/05/12 01:49:41;;;;;;;5.00;3.58;;;;;;;-143.48;100.00;118439.88;5055494;28;20108;-67
2023/05/12 01:52:06;;;;;;;5.85;3.72;;;;;;;-143.48;100.00;118439.88;5055476;28;20468;-66
2023/05/12 01:54:31;;;;;;;5.47;3.30;;;;;;;-143.48;100.00;118439.88;5055429;28;20053;-66
2023/05/12 01:56:56;;;;;;;6.28;3.50;;;;;;;-143.48;100.00;118439.88;5037548;28;20472;-66
2023/05/12 01:59:22;;;;;;;6.63;3.22;;;;;;;-143.48;100.00;118439.88;5037448;28;20385;-66
2023/05/12 02:01:47;;;;;;;8.85;3.22;;;;;;;-143.48;100.00;118439.88;5055571;28;20556;-65
2023/05/12 02:04:12;;;;;;;6.05;3.00;;;;;;;-143.48;100.00;118439.88;5055246;28;20112;-66
2023/05/12 02:06:38;;;;;;;9.45;3.05;;;;;;;-143.48;100.00;118439.88;5055289;28;20083;-65
2023/05/12 02:09:03;;;;;;;4.00;2.90;;;;;;;-143.48;100.00;118439.88;5055452;28;20025;-65
2023/05/12 02:11:29;;;;;;;4.63;2.80;;;;;;;-143.48;100.00;118439.88;5055006;28;20021;-65
2023/05/12 02:13:55;;;;;;;4.32;2.60;;;;;;;-143.48;100.00;118439.88;5055061;28;20443;-67
2023/05/12 02:16:20;;;;;;;4.32;2.67;;;;;;;-143.48;100.00;118439.88;5037138;28;20390;-67
2023/05/12 02:18:45;;;;;;;5.40;2.95;;;;;;;-143.48;100.00;118439.88;5054867;28;20079;-67
2023/05/12 02:21:11;;;;;;;8.25;2.83;;;;;;;-143.48;100.00;118439.88;5054926;28;20044;-66
2023/05/12 02:23:36;;;;;;;4.30;2.38;;;;;;;-143.48;100.00;118439.88;5054914;28;20044;-66
2023/05/12 02:26:01;;;;;;;4.72;2.40;;;;;;;-143.48;100.00;118439.88;5055040;28;20025;-65
2023/05/12 02:28:27;;;;;;;4.10;2.15;;;;;;;-143.48;100.00;118439.88;5036815;28;20060;-66
2023/05/12 02:30:53;;;;;;;3.13;2.00;;;;;;;-143.48;100.00;118439.88;5054738;28;20036;-65
2023/05/12 02:33:19;;;;;;;3.20;1.75;;;;;;;-143.48;100.00;118439.88;5054613;28;20029;-65
2023/05/12 02:35:45;;;;;;;5.50;1.90;;;;;;;-143.48;100.00;118439.88;5054658;28;20025;-66
2023/05/12 02:38:11;;;;;;;3.58;2.17;;;;;;;-143.48;100.00;118439.88;5054830;28;20472;-66
2023/05/12 02:40:36;;;;;;;4.95;2.00;;;;;;;-143.48;100.00;118439.88;5054565;28;20017;-66
2023/05/12 02:43:02;;;;;;;2.83;2.00;;;;;;;-143.48;100.00;118439.88;5054012;28;20029;-66
2023/05/12 02:45:27;;;;;;;3.40;2.10;;;;;;;-143.48;100.00;118439.88;5054327;28;20108;-66
2023/05/12 02:47:52;;;;;;;2.60;1.90;;;;;;;-143.48;100.00;118439.88;5054305;28;20055;-65
2023/05/12 02:50:19;;;;;;;4.90;2.17;;;;;;;-143.48;100.00;118439.88;5054308;28;20056;-65
2023/05/12 02:52:44;;;;;;;6.22;2.30;;;;;;;-143.48;100.00;118439.88;5054356;28;20369;-66
2023/05/12 02:55:10;;;;;;;3.13;2.22;;;;;;;-143.48;100.00;118439.88;5054402;28;20032;-66
2023/05/12 02:57:35;;;;;;;5.60;2.03;;;;;;;-143.48;100.00;118439.88;5054262;28;20104;-66
2023/05/12 03:00:03;;;;;;;3.70;2.35;;;;;;;-143.48;100.00;118439.88;5054232;28;20473;-66
2023/05/12 03:02:28;;;;;;;3.65;2.60;;;;;;;-143.48;100.00;118439.88;5036288;28;20370;-66
2023/05/12 03:04:54;;;;;;;3.97;2.40;;;;;;;-143.48;100.00;118439.88;5054127;28;20032;-65
2023/05/12 03:07:19;;;;;;;5.47;2.70;;;;;;;-143.48;100.00;118439.88;5054243;28;20120;-65
2023/05/12 03:09:44;;;;;;;5.70;3.10;;;;;;;-143.48;100.00;118439.88;5053985;28;20020;-66
2023/05/12 03:12:10;;;;;;;5.63;3.50;;;;;;;-143.48;100.00;118439.88;5053950;28;20476;-67
2023/05/12 03:14:35;;;;;;;5.80;3.80;;;;;;;-143.48;100.00;118439.88;5054020;28;20024;-66
2023/05/12 03:17:00;;;;;;;5.68;3.67;;;;;;;-143.48;100.00;118439.88;5053883;28;20028;-65
2023/05/12 03:19:28;;;;;;;9.32;4.95;;;;;;;-143.48;100.00;118439.88;5053754;28;20040;-66
2023/05/12 03:21:54;;;;;;;9.80;4.90;;;;;;;-143.48;100.00;118439.88;5053765;28;20013;-66
2023/05/12 03:24:19;;;;;;;9.05;5.20;;;;;;;-143.48;100.00;118439.88;5053820;28;20044;-66
2023/05/12 03:26:44;;;;;;;10.45;6.60;;;;;;;-143.48;100.00;118439.88;5053731;28;20052;-66
2023/05/12 03:29:10;;;;;;;15.38;6.40;;;;;;;-143.48;100.00;118439.88;5053592;28;20025;-65
2023/05/12 03:31:35;;;;;;;13.55;6.90;;;;;;;-143.48;100.00;118439.88;5035728;28;20108;-66
2023/05/12 03:34:00;;;;;;;12.93;6.80;;;;;;;-143.48;100.00;118439.88;5053532;28;20024;-66
2023/05/12 03:36:26;;;;;;;13.15;7.25;;;;;;;-143.48;100.00;118439.88;5053562;28;20029;-67
2023/05/12 03:38:51;;;;;;;15.18;7.35;;;;;;;-143.48;100.00;118439.88;5053483;28;20028;-66
2023/05/12 03:41:16;;;;;;;12.50;6.93;;;;;;;-143.48;100.00;118439.88;5053466;28;20017;-66
2023/05/12 03:43:42;;;;;;;14.57;7.85;;;;;;;-143.48;100.00;118439.88;5053397;28;20025;-66
2023/05/12 03:46:07;;;;;;;16.98;8.88;;;;;;;-143.48;100.00;118439.88;5053530;28;20028;-67
2023/05/12 03:48:32;;;;;;;15.68;8.57;;;;;;;-143.48;100.00;118439.88;5053088;28;20053;-66
2023/05/12 03:50:58;;;;;;;19.75;9.63;;;;;;;-143.48;100.00;118439.88;5053206;28;20032;-66
2023/05/12 03:53:23;;;;;;;20.70;9.60;;;;;;;-143.48;100.00;118439.88;5052418;28;20025;-67
2023/05/12 03:55:48;;;;;;;19.05;9.50;;;;;;;-143.48;100.00;118439.88;5035359;28;20100;-66
2023/05/12 03:58:14;;;;;;;21.65;9.60;;;;;;;-143.48;100.00;118439.88;5053402;28;20416;-66
2023/05/12 04:00:39;;;;;;;19.17;10.35;;;;;;;-143.48;100.00;118439.88;5053052;28;20024;-66
2023/05/12 04:03:04;;;;;;;22.00;10.82;;;;;;;-143.48;100.00;118439.88;5035272;28;20021;-67
2023/05/12 04:05:30;;;;;;;20.65;10.63;;;;;;;-143.48;100.00;118439.88;5053104;28;20032;-66
2023/05/12 04:07:55;;;;;;;20.95;10.57;;;;;;;-143.48;100.00;118439.88;5053124;28;20029;-66
2023/05/12 04:10:21;;;;;;;23.98;11.18;;;;;;;-143.48;100.00;118439.88;5053020;28;20392;-66
2023/05/12 04:12:46;;;;;;;25.55;10.85;;;;;;;-143.48;100.00;118439.88;5053029;28;20029;-67
2023/05/12 04:15:13;;;;;;;24.63;11.40;;;;;;;-143.48;100.00;118439.88;5053017;28;20496;-65
2023/05/12 04:17:39;;;;;;;23.52;11.55;;;;;;;-143.48;100.00;118439.88;5053166;28;20392;-66
2023/05/12 04:20:05;;;;;;;26.58;12.35;;;;;;;-143.48;100.00;118439.88;5052936;28;20025;-66
2023/05/12 04:22:30;;;;;;;24.42;12.27;;;;;;;-143.48;100.00;118439.88;5053027;28;20406;-66
2023/05/12 04:24:56;;;;;;;27.30;12.35;;;;;;;-143.48;100.00;118439.88;5052888;28;20021;-65
2023/05/12 04:27:21;;;;;;;26.33;12.07;;;;;;;-143.48;100.00;118439.88;5052831;28;20029;-66
2023/05/12 04:29:46;;;;;;;25.85;13.45;;;;;;;-143.48;100.00;118439.88;5035067;28;20029;-65
2023/05/12 04:32:12;;;;;;;31.70;13.07;;;;;;;-143.48;100.00;118439.88;5052891;28;20112;-66
2023/05/12 04:34:37;;;;;;;31.48;13.07;;;;;;;-143.48;100.00;118439.88;5052854;28;20081;-66
2023/05/12 04:37:02;;;;;;;27.80;13.20;;;;;;;-143.48;100.00;118439.88;5052791;28;20021;-66
2023/05/12 04:39:28;;;;;;;25.92;13.15;;;;;;;-143.48;100.00;118439.88;5053010;28;20029;-65
2023/05/12 04:41:53;;;;;;;29.98;13.88;;;;;;;-143.48;100.00;118439.88;5052746;28;20024;-65
2023/05/12 04:44:18;;;;;;;27.75;14.25;;;;;;;-143.48;100.00;118439.88;5052904;28;20104;-65
2023/05/12 04:46:43;;;;;;;28.73;14.05;;;;;;;-143.48;100.00;118439.88;5052445;28;20035;-66
2023/05/12 04:49:09;;;;;;;31.45;13.65;;;;;;;-143.48;100.00;118439.88;5052734;28;20024;-66
2023/05/12 04:51:40;;;;;;;27.38;14.20;;;;;;;-143.48;100.00;118439.88;5052629;28;20044;-65
2023/05/12 04:54:08;;;;;;;31.08;14.35;;;;;;;-143.48;100.00;118439.88;5052656;28;20032;-67
2023/05/12 04:56:33;;;;;;;32.85;15.98;;;;;;;-143.48;100.00;118439.88;5052517;28;20495;-67
2023/05/12 04:58:59;;;;;;;34.75;15.77;;;;;;;-143.48;100.00;118439.88;5053223;28;20024;-67
2023/05/12 05:01:24;;;;;;;30.13;15.18;;;;;;;-143.48;100.00;118439.88;5034897;28;20025;-65
2023/05/12 05:03:50;;;;;;;38.83;16.98;;;;;;;-143.48;100.00;118439.88;5052564;28;20033;-67
2023/05/12 05:06:15;;;;;;;38.45;16.50;;;;;;;-143.48;100.00;118439.88;5038180;28;20029;-66
2023/05/12 05:08:41;;;;;;;36.05;15.82;;;;;;;-143.48;100.00;118439.88;5056278;28;20021;-66
2023/05/12 05:11:06;;;;;;;37.28;16.77;;;;;;;-143.48;100.00;118439.88;5056202;28;20029;-66
2023/05/12 05:13:31;;;;;;;36.95;17.13;;;;;;;-143.48;100.00;118439.88;5056457;28;20032;-67
2023/05/12 05:15:56;;;;;;;39.03;17.00;;;;;;;-143.48;100.00;118439.88;5056199;28;20024;-66
2023/05/12 05:18:22;;;;;;;41.88;16.77;;;;;;;-143.48;100.00;118439.88;5056008;28;20055;-66
2023/05/12 05:20:47;;;;;;;39.55;18.17;;;;;;;-143.48;100.00;118439.88;5056026;28;20029;-66
2023/05/12 05:23:12;;;;;;;37.53;17.63;;;;;;;-143.48;100.00;118439.88;5056061;28;20074;-66
2023/05/12 05:25:38;;;;;;;37.22;17.38;;;;;;;-143.48;100.00;118439.88;5038133;28;20484;-66
2023/05/12 05:28:03;;;;;;;40.35;18.10;;;;;;;-143.48;100.00;118439.88;5038100;28;20059;-66
2023/05/12 05:30:29;;;;;;;38.50;18.23;;;;;;;-143.48;100.00;118439.88;5055761;28;20529;-66
2023/05/12 05:32:54;;;;;;;42.15;18.45;;;;;;;-143.48;100.00;118439.88;5055891;28;20087;-66
2023/05/12 05:35:19;;;;;;;52.17;19.25;;;;;;;-143.48;100.00;118439.88;5055894;28;20020;-66
2023/05/12 05:37:46;;;;;;;42.10;18.65;;;;;;;-143.48;100.00;118439.88;5055822;28;20024;-66
2023/05/12 05:40:11;;;;;;;42.80;19.45;;;;;;;-143.48;100.00;118439.88;5055719;28;20028;-65
2023/05/12 05:42:36;;;;;;;41.88;19.02;;;;;;;-143.48;100.00;118439.88;5055651;28;20029;-66
2023/05/12 05:45:02;;;;;;;40.67;19.48;;;;;;;-143.48;100.00;118439.88;5037782;28;20084;-66
2023/05/12 05:47:27;;;;;;;38.72;18.27;;;;;;;-143.48;100.00;118439.88;5034174;28;20060;-67
2023/05/12 05:49:54;;;;;;;43.92;19.70;;;;;;;-143.48;100.00;118439.88;5035622;28;20021;-66
2023/05/12 05:52:19;;;;;;;40.20;18.73;;;;;;;-143.48;100.00;118439.88;5035497;28;20112;-67
2023/05/12 05:54:45;;;;;;;40.75;18.35;;;;;;;-143.48;100.00;118439.88;5035524;28;20502;-66
2023/05/12 05:57:10;;;;;;;45.63;18.58;;;;;;;-143.48;100.00;118439.88;5035742;28;20100;-66
2023/05/12 05:59:35;;;;;;;41.53;19.02;;;;;;;-143.48;100.00;118439.88;5035522;28;20396;-67
2023/05/12 06:02:01;;;;;;;40.72;19.73;;;;;;;-143.48;100.00;118439.88;5034554;28;20454;-68
2023/05/12 06:04:26;;;;;;;42.83;18.65;;;;;;;-143.48;100.00;118439.88;5036537;28;20083;-68
2023/05/12 06:06:52;;;;;;;38.65;18.40;;;;;;;-143.48;100.00;118439.88;5036495;28;20021;-68
2023/05/12 06:09:18;;;;;;;37.03;18.33;;;;;;;-143.48;100.00;118439.88;5036526;28;20049;-68
2023/05/12 06:11:47;;;;;;;33.42;17.92;;;;;;;-143.48;100.00;118439.88;5035176;28;20029;-68
2023/05/12 06:14:12;;;;;;;39.63;19.10;;;;;;;-143.48;100.00;118439.88;5034583;28;20100;-68
2023/05/12 06:16:38;;;;;;;44.83;18.55;;;;;;;-143.48;100.00;118439.88;5034595;28;20049;-66
2023/05/12 06:19:03;;;;;;;41.80;18.65;;;;;;;-143.48;100.00;118439.88;5035497;28;20116;-67
2023/05/12 06:21:29;;;;;;;36.22;18.25;;;;;;;-143.48;100.00;118439.88;5035610;28;20041;-67
2023/05/12 06:23:55;;;;;;;38.90;19.15;;;;;;;-143.48;100.00;118439.88;5035107;28;20519;-67
2023/05/12 06:26:21;;;;;;;33.40;17.90;;;;;;;-143.48;100.00;118439.88;5035404;28;20048;-66
2023/05/12 06:28:46;;;;;;;36.65;17.67;;;;;;;-143.48;100.00;118439.88;5035115;28;20485;-66
2023/05/12 06:31:11;;;;;;;32.97;17.27;;;;;;;-143.48;100.00;118439.88;5035223;28;20381;-67
2023/05/12 06:33:37;;;;;;;35.78;17.30;;;;;;;-143.48;100.00;118439.88;5031944;28;20026;-68
2023/05/12 06:36:02;;;;;;;41.30;18.25;;;;;;;-143.48;100.00;118439.88;5033575;28;20022;-68
2023/05/12 06:38:27;;;;;;;36.67;17.35;;;;;;;-143.48;100.00;118439.88;5033423;28;20109;-67
2023/05/12 06:40:53;;;;;;;35.47;17.35;;;;;;;-143.48;100.00;118439.88;5033694;28;20426;-66
2023/05/12 06:43:18;;;;;;;35.85;18.20;;;;;;;-143.48;100.00;118439.88;5033585;28;20036;-68
2023/05/12 06:45:43;;;;;;;31.85;16.55;;;;;;;-143.48;100.00;118439.88;5033903;28;20108;-67
2023/05/12 06:48:09;;;;;;;34.55;17.38;;;;;;;-143.48;100.00;118439.88;5032851;28;20474;-69
2023/05/12 06:50:35;;;;;;;33.78;17.30;;;;;;;-143.48;100.00;118439.88;5034898;28;20021;-67
2023/05/12 06:53:00;;;;;;;33.97;17.27;;;;;;;-143.48;100.00;118439.88;5033699;28;20033;-67
2023/05/12 06:55:26;;;;;;;32.80;17.50;;;;;;;-143.48;100.00;118439.88;5034801;28;20029;-68
2023/05/12 06:57:54;;;;;;;37.70;17.20;;;;;;;-143.48;100.00;118439.88;5035064;28;20018;-68
2023/05/12 07:00:21;;;;;;;37.30;17.42;;;;;;;-143.48;100.00;118439.88;5034805;28;20026;-67
2023/05/12 07:02:47;;;;;;;35.88;17.60;;;;;;;-143.48;100.00;118439.88;5034566;28;20159;-68
2023/05/12 07:05:12;;;;;;;31.10;16.55;;;;;;;-143.48;100.00;118439.88;5034736;28;20460;-67
2023/05/12 07:07:37;;;;;;;28.83;16.25;;;;;;;-143.48;100.00;118439.88;5034653;28;20457;-67
2023/05/12 07:10:03;;;;;;;36.90;17.05;;;;;;;-143.48;100.00;118439.88;5034565;28;20025;-67
2023/05/12 07:12:28;;;;;;;30.13;16.42;;;;;;;-143.48;100.00;118439.88;5034556;28;20061;-67
2023/05/12 07:14:53;;;;;;;31.52;16.48;;;;;;;-143.48;100.00;118439.88;5034485;28;20021;-67
2023/05/12 07:17:20;;;;;;;31.83;17.35;;;;;;;-143.48;100.00;118439.88;5034485;28;20017;-68
2023/05/12 07:19:45;;;;;;;30.27;16.48;;;;;;;-143.48;100.00;118439.88;5033334;28;20116;-68
2023/05/12 07:22:11;;;;;;;32.47;17.02;;;;;;;-143.48;100.00;118439.88;5034415;28;20048;-68
2023/05/12 07:24:37;;;;;;;30.50;17.30;;;;;;;-143.48;100.00;118439.88;5032895;28;20354;-69
2023/05/12 07:27:03;;;;;;;27.48;16.33;;;;;;;-143.48;100.00;118439.88;5034167;28;20026;-68
2023/05/12 07:29:28;;;;;;;29.48;17.42;;;;;;;-143.48;100.00;118439.88;5034228;28;20099;-67
2023/05/12 07:31:54;;;;;;;26.80;15.93;;;;;;;-143.48;100.00;118439.88;5034068;28;20096;-69
2023/05/12 07:34:20;;;;;;;27.90;16.42;;;;;;;-143.48;100.00;118439.88;5034204;28;20033;-69
2023/05/12 07:36:45;;;;;;;27.65;16.63;;;;;;;-143.48;100.00;118439.88;5032678;28;20028;-68
2023/05/12 07:39:13;;;;;;;27.23;16.67;;;;;;;-143.48;100.00;118439.88;5033926;28;20022;-69
2023/05/12 07:41:39;;;;;;;31.27;17.63;;;;;;;-143.48;100.00;118439.88;5034159;28;20017;-67
2023/05/12 07:44:04;;;;;;;28.60;16.42;;;;;;;-143.48;99.67;118439.88;5032540;28;20079;-67
2023/05/12 07:46:30;;;;;;;28.65;17.00;;;;;;;-143.48;99.67;118439.88;5032587;28;20148;-68
2023/05/12 07:48:56;;;;;;;28.75;16.90;;;;;;;-143.48;100.00;118439.88;5052074;28;20053;-67
2023/05/12 07:51:21;;;;;;;27.42;15.70;;;;;;;-143.48;98.02;118439.88;5053738;28;20024;-68
2023/05/12 07:53:47;;;;;;;28.92;16.35;;;;;;;-143.48;99.78;118439.88;5035932;28;20457;-68
2023/05/12 07:56:12;;;;;;;28.77;16.48;;;;;;;-143.48;99.05;118439.88;5053670;28;20017;-68
2023/05/12 07:58:37;;;;;;;28.02;16.80;;;;;;;-143.48;98.08;118439.88;5053785;28;20036;-67
2023/05/12 08:01:04;;;;;;;31.75;16.35;;;;;;;-143.48;97.09;118439.88;5035813;28;20474;-67
2023/05/12 08:03:30;;;;;;;27.75;16.33;;;;;;;-143.48;97.01;118439.88;5053714;28;20028;-67
2023/05/12 08:05:56;;;;;;;25.80;16.50;;;;;;;-143.48;94.23;118439.88;5053621;28;20126;-66
2023/05/12 08:08:21;;;;;;;23.55;15.90;;;;;;;-143.48;91.88;118439.88;5053441;28;20025;-66
2023/05/12 08:10:46;;;;;;;26.55;16.00;;;;;;;-143.48;94.82;118439.88;5053589;28;20021;-67
2023/05/12 08:13:13;;;;;;;27.50;15.80;;;;;;;-143.48;95.34;118439.88;5053410;28;20083;-67
2023/05/12 08:15:38;;;;;;;24.73;15.65;;;;;;;-143.48;92.94;118439.88;5053476;28;20025;-67
2023/05/12 08:18:03;;;;;;;24.95;16.25;;;;;;;-143.48;91.27;118439.88;5053308;28;20090;-68
2023/05/12 08:20:31;;;;;;;22.55;15.88;;;;;;;-143.48;90.78;118439.88;5053348;28;20092;-66
2023/05/12 08:22:56;;;;;;;23.27;15.43;;;;;;;-143.48;89.99;118439.88;5053312;28;20035;-67
2023/05/12 08:25:22;;;;;;;23.80;15.38;;;;;;;-143.48;89.04;118439.88;5053189;28;20025;-66
2023/05/12 08:27:47;;;;;;;21.15;14.70;;;;;;;-143.48;86.82;118439.88;5053124;28;20104;-67
2023/05/12 08:30:13;;;;;;;22.60;14.85;;;;;;;-143.48;85.05;118439.88;5053288;28;20057;-67
2023/05/12 08:32:38;;;;;;;19.55;14.32;;;;;;;-143.48;84.72;118439.88;5053200;28;20021;-67
2023/05/12 08:35:04;;;;;;;22.05;14.55;;;;;;;-143.48;85.42;118439.88;5053088;28;20028;-67
2023/05/12 08:37:30;;;;;;;21.10;14.55;;;;;;;-143.48;85.75;118439.88;5053192;28;20024;-67
2023/05/12 08:39:56;;;;;;;22.33;13.68;;;;;;;-143.48;82.65;118439.88;5036799;28;20020;-67
2023/05/12 08:42:21;;;;;;;25.52;15.27;;;;;;;-143.48;85.73;118439.88;5057067;28;20155;-67
2023/05/12 08:44:47;;;;;;;22.93;14.07;;;;;;;-143.48;83.67;118439.88;5057129;28;20483;-68
2023/05/12 08:47:14;;;;;;;21.02;14.05;;;;;;;-143.48;82.83;118439.88;5057135;28;20635;-67
2023/05/12 08:49:42;;;;;;;21.85;13.40;;;;;;;-143.48;82.32;118439.88;5039373;28;20470;-68
2023/05/12 08:52:08;;;;;;;20.70;13.90;;;;;;;-143.48;83.46;118439.88;5039212;28;20021;-67
2023/05/12 08:54:35;;;;;;;22.70;13.88;;;;;;;-143.48;78.84;118439.88;5039011;28;20027;-67
2023/05/12 08:57:01;;;;;;;19.25;12.80;;;;;;;-143.48;80.43;118439.88;5039383;28;20120;-67
2023/05/12 08:59:26;;;;;;;18.23;12.93;;;;;;;-143.48;76.51;118439.88;5057106;28;20020;-68
2023/05/12 09:01:53;;;;;;;19.20;13.73;;;;;;;-143.48;77.84;118439.88;5056882;28;20075;-68
2023/05/12 09:04:19;;;;;;;19.70;12.98;;;;;;;-143.48;80.13;118439.88;5037953;28;20078;-67
2023/05/12 09:06:45;;;;;;;16.00;11.50;;;;;;;-143.48;77.43;118439.88;5055891;28;20024;-69
2023/05/12 09:09:13;;;;;;;21.50;13.00;;;;;;;-143.48;77.35;118439.88;5055601;28;20036;-67
2023/05/12 09:11:40;;;;;;;18.77;12.32;;;;;;;-143.48;78.70;118439.88;5056481;28;20165;-67
2023/05/12 09:14:21;;;;;;;17.40;12.52;;;;;;;-143.48;76.39;118439.88;5056405;28;20029;-67
2023/05/12 09:16:50;;;;;;;17.58;12.77;;;;;;;-143.48;81.49;118439.88;5056166;28;20021;-67
2023/05/12 09:19:20;;;;;;;19.25;13.35;;;;;;;-143.48;78.88;118439.88;5056115;28;20025;-68
2023/05/12 09:21:46;;;;;;;16.55;12.48;;;;;;;-143.48;79.99;118439.88;5038270;28;20079;-67
2023/05/12 09:24:11;;;;;;;18.55;12.73;;;;;;;-143.48;78.43;118439.88;5056349;28;20031;-68
2023/05/12 09:26:46;;;;;;;18.05;12.40;;;;;;;-143.48;79.40;118439.88;5056256;28;20029;-68
2023/05/12 09:29:11;;;;;;;17.95;12.52;;;;;;;-143.48;76.52;118439.88;5056459;28;20028;-69
2023/05/12 09:31:37;;;;;;;18.85;11.95;;;;;;;-143.48;75.46;118439.88;5056261;28;20025;-67
2023/05/12 09:34:08;;;;;;;16.95;11.77;;;;;;;-143.48;73.35;118439.88;5056444;28;20044;-68
2023/05/12 09:36:34;;;;;;;13.90;11.50;;;;;;;-143.48;68.53;118439.88;5038199;28;20053;-68
2023/05/12 09:39:05;;;;;;;14.70;10.95;;;;;;;-143.48;68.35;118439.88;5055867;28;20052;-68
2023/05/12 09:41:38;;;;;;;15.63;11.05;;;;;;;-143.48;69.54;118439.88;5056334;28;20099;-67
2023/05/12 09:44:05;;;;;;;16.88;10.82;;;;;;;-143.48;67.29;118439.88;5056234;28;20064;-67
2023/05/12 09:46:31;;;;;;;19.48;11.98;;;;;;;-143.48;72.70;118439.88;5056218;28;20108;-68
2023/05/12 09:48:57;;;;;;;16.05;11.77;;;;;;;-143.48;72.90;118439.88;5055874;28;20116;-70
2023/05/12 09:51:23;;;;;;;15.05;11.75;;;;;;;-143.48;71.62;118439.88;5054402;28;20049;-67
2023/05/12 09:53:50;;;;;;;17.52;11.80;;;;;;;-143.48;72.19;118439.88;5055109;28;20453;-66
2023/05/12 09:56:16;;;;;;;20.52;12.27;;;;;;;-143.48;73.64;118439.88;5037952;28;20024;-66
2023/05/12 09:58:44;;;;;;;15.85;11.75;;;;;;;-143.48;73.15;118439.88;5037798;28;20657;-67
2023/05/12 10:01:12;;;;;;;17.70;11.77;;;;;;;-143.48;71.70;118439.88;5037821;28;20445;-66
2023/05/12 10:03:39;;;;;;;16.35;12.10;;;;;;;-143.48;74.13;118439.88;5055343;28;20025;-67
2023/05/12 10:06:06;;;;;;;23.67;12.23;;;;;;;-143.48;70.54;118439.88;5055277;28;20055;-68
2023/05/12 10:08:36;;;;;;;16.45;11.98;;;;;;;-143.48;72.53;118439.88;5054405;28;20033;-68
2023/05/12 10:11:04;;;;;;;19.70;12.23;;;;;;;-143.48;75.59;118439.88;5055346;28;20369;-67
2023/05/12 10:13:31;;;;;;;15.52;12.10;;;;;;;-143.48;73.63;118439.88;5037769;28;20044;-69
2023/05/12 10:15:58;;;;;;;15.73;12.20;;;;;;;-143.48;72.71;118439.88;5055526;28;20079;-67
2023/05/12 10:18:24;;;;;;;15.25;11.80;;;;;;;-143.48;73.08;118439.88;5055477;28;20021;-68
2023/05/12 10:20:51;;;;;;;15.90;11.50;;;;;;;-143.48;71.74;118439.88;5055216;28;20029;-68
2023/05/12 10:23:17;;;;;;;14.85;11.43;;;;;;;-143.48;72.22;118439.88;5055331;28;20075;-67
2023/05/12 10:25:43;;;;;;;17.10;11.32;;;;;;;-143.48;71.41;118439.88;5054349;28;20059;-68
2023/05/12 10:28:09;;;;;;;15.77;11.05;;;;;;;-143.48;70.42;118439.88;5036498;28;20060;-68
2023/05/12 10:30:37;;;;;;;17.92;10.77;;;;;;;-143.48;69.68;118439.88;5054677;28;20401;-68
2023/05/12 10:33:02;;;;;;;16.70;11.90;;;;;;;-143.48;68.54;118439.88;5037020;28;20020;-68
2023/05/12 10:35:32;;;;;;;15.98;11.68;;;;;;;-143.48;65.58;118439.88;5055070;28;20525;-68
2023/05/12 10:38:05;;;;;;;15.32;11.32;;;;;;;-143.48;64.92;118439.88;5055469;28;20025;-68
2023/05/12 10:40:30;;;;;;;17.30;11.98;;;;;;;-143.48;64.82;118439.88;5054832;28;20063;-67
2023/05/12 10:42:59;;;;;;;16.20;11.27;;;;;;;-143.48;65.33;118439.88;5055063;28;20033;-68
2023/05/12 10:45:25;;;;;;;14.55;9.63;;;;;;;-143.48;62.77;118439.88;5054876;28;20025;-68
2023/05/12 10:47:50;;;;;;;15.27;10.52;;;;;;;-143.48;63.64;118439.88;5054883;28;20103;-67